Terminal Aerodrome Forecast
Issued by NWS Detroit/Pontiac, MI

Home | Current Version | Previous Version | Text Only | Print | Product List | Glossary On
Versions: 1 2 3 4 5 6 7 8 9 10 11 12 13 14 15 16 17 18
000
FTUS43 KDTX 290500
TAFFNT
TAF
KFNT 290530Z 2906/3006 27005KT P6SM SCT050
     FM291300 25010KT P6SM BKN050 BKN120
     FM291800 28012G16KT P6SM SCT035 BKN045 PROB30 2919/2922 5SM
      -SHRA BKN035
     FM292300 28009KT P6SM SCT040 BKN080
     FM300200 26004KT P6SM SCT080 BKN120=

USA.gov is the U.S. government's official web portal to all federal, state and local government web resources and services.